Time,TemperatureF,DewpointF,PressureIn,WindDirection,WindDirectionDegrees,WindSpeedMPH,WindSpeedGustMPH,Humidity,HourlyPrecipIn,Conditions,Clouds,dailyrainin,SoftwareType,DateUTC
2013-03-21 00:20:00,58.0,-99.9,-100.00,West,260,9.0,19.0,-999,-99.99,,,-99.99,,2013-03-21 07:20:00,
2013-03-21 00:22:00,59.0,-99.9,-100.00,West,268,16.0,21.0,-999,-99.99,,,-99.99,,2013-03-21 07:22:00,
2013-03-21 00:33:00,59.0,-99.9,-100.00,West,268,16.0,21.0,-999,-99.99,,,-99.99,,2013-03-21 07:33:00,
2013-03-21 00:43:00,59.0,-99.9,-100.00,West,268,16.0,21.0,-999,-99.99,,,-99.99,,2013-03-21 07:43:00,
2013-03-21 01:02:00,58.0,-99.9,-100.00,West,260,9.0,19.0,-999,-99.99,,,-99.99,,2013-03-21 08:02:00,
2013-03-21 01:13:00,58.0,-99.9,-100.00,West,260,9.0,19.0,-999,-99.99,,,-99.99,,2013-03-21 08:13:00,
2013-03-21 02:22:00,58.0,-99.9,-100.00,WNW,297,13.0,19.0,-999,-99.99,,,-99.99,,2013-03-21 09:22:00,
2013-03-21 02:33:00,58.0,-99.9,-100.00,WNW,297,13.0,19.0,-999,-99.99,,,-99.99,,2013-03-21 09:33:00,
2013-03-21 04:10:00,56.0,-99.9,-100.00,NW,316,17.0,17.0,-999,-99.99,,,-99.99,,2013-03-21 11:10:00,
2013-03-21 04:33:00,56.0,-99.9,-100.00,NW,326,10.0,16.0,-999,-99.99,,,-99.99,,2013-03-21 11:33:00,
2013-03-21 04:43:00,56.0,-99.9,-100.00,NW,326,10.0,16.0,-999,-99.99,,,-99.99,,2013-03-21 11:43:00,
2013-03-21 04:53:00,56.0,-99.9,-100.00,NW,316,17.0,17.0,-999,-99.99,,,-99.99,,2013-03-21 11:53:00,
2013-03-21 05:03:00,56.0,-99.9,-100.00,NW,316,17.0,17.0,-999,-99.99,,,-99.99,,2013-03-21 12:03:00,
2013-03-21 05:22:00,55.0,-99.9,-100.00,NW,308,13.0,18.0,-999,-99.99,,,-99.99,,2013-03-21 12:22:00,
2013-03-21 05:33:00,55.0,-99.9,-100.00,NW,308,13.0,18.0,-999,-99.99,,,-99.99,,2013-03-21 12:33:00,
2013-03-21 06:03:00,55.0,-99.9,-100.00,NW,305,10.0,14.0,-999,-99.99,,,-99.99,,2013-03-21 13:03:00,
2013-03-21 06:13:00,55.0,-99.9,-100.00,NW,305,10.0,14.0,-999,-99.99,,,-99.99,,2013-03-21 13:13:00,
2013-03-21 06:20:00,52.0,-99.9,-100.00,West,269,6.0,10.0,-999,-99.99,,,-99.99,,2013-03-21 13:20:00,
2013-03-21 06:22:00,55.0,-99.9,-100.00,NW,320,8.0,10.0,-999,-99.99,,,-99.99,,2013-03-21 13:22:00,
2013-03-21 06:33:00,55.0,-99.9,-100.00,NW,320,8.0,10.0,-999,-99.99,,,-99.99,,2013-03-21 13:33:00,
2013-03-21 07:02:00,52.0,-99.9,-100.00,West,269,6.0,10.0,-999,-99.99,,,-99.99,,2013-03-21 14:02:00,
2013-03-21 07:12:00,52.0,-99.9,-100.00,West,269,6.0,10.0,-999,-99.99,,,-99.99,,2013-03-21 14:12:00,
2013-03-21 07:20:00,54.0,-99.9,-100.00,WNW,282,8.0,8.0,-999,-99.99,,,-99.99,,2013-03-21 14:20:00,
2013-03-21 08:04:00,54.0,-99.9,-100.00,WNW,282,8.0,8.0,-999,-99.99,,,-99.99,,2013-03-21 15:04:00,
2013-03-21 08:13:00,54.0,-99.9,-100.00,WNW,282,8.0,8.0,-999,-99.99,,,-99.99,,2013-03-21 15:13:00,
2013-03-21 11:02:00,64.0,-99.9,-100.00,West,273,8.0,14.0,-999,-99.99,,,-99.99,,2013-03-21 18:02:00,
2013-03-21 11:12:00,64.0,-99.9,-100.00,West,273,8.0,14.0,-999,-99.99,,,-99.99,,2013-03-21 18:12:00,
2013-03-21 11:23:00,64.0,-99.9,-100.00,West,273,8.0,14.0,-999,-99.99,,,-99.99,,2013-03-21 18:23:00,
2013-03-21 11:40:00,70.0,-99.9,-100.00,WNW,297,8.0,13.0,-999,-99.99,,,-99.99,,2013-03-21 18:40:00,
2013-03-21 12:03:00,70.0,-99.9,-100.00,NW,311,13.0,14.0,-999,-99.99,,,-99.99,,2013-03-21 19:03:00,
2013-03-21 12:12:00,70.0,-99.9,-100.00,NW,311,13.0,14.0,-999,-99.99,,,-99.99,,2013-03-21 19:12:00,
2013-03-21 12:23:00,70.0,-99.9,-100.00,WNW,297,8.0,13.0,-999,-99.99,,,-99.99,,2013-03-21 19:23:00,
2013-03-21 12:32:00,70.0,-99.9,-100.00,WNW,297,8.0,13.0,-999,-99.99,,,-99.99,,2013-03-21 19:32:00,
2013-03-21 13:30:00,77.0,-99.9,-100.00,West,263,5.0,15.0,-999,-99.99,,,-99.99,,2013-03-21 20:30:00,
2013-03-21 14:23:00,77.0,-99.9,-100.00,West,263,5.0,15.0,-999,-99.99,,,-99.99,,2013-03-21 21:23:00,
2013-03-21 15:40:00,77.0,-99.9,-100.00,WNW,283,7.0,19.0,-999,-99.99,,,-99.99,,2013-03-21 22:40:00,
2013-03-21 15:53:00,76.0,-99.9,-100.00,West,269,15.0,16.0,-999,-99.99,,,-99.99,,2013-03-21 22:53:00,
2013-03-21 16:03:00,76.0,-99.9,-100.00,West,269,15.0,16.0,-999,-99.99,,,-99.99,,2013-03-21 23:03:00,
2013-03-21 16:12:00,76.0,-99.9,-100.00,West,269,15.0,16.0,-999,-99.99,,,-99.99,,2013-03-21 23:12:00,
2013-03-21 16:22:00,77.0,-99.9,-100.00,WNW,283,7.0,19.0,-999,-99.99,,,-99.99,,2013-03-21 23:22:00,
2013-03-21 16:33:00,77.0,-99.9,-100.00,WNW,283,7.0,19.0,-999,-99.99,,,-99.99,,2013-03-21 23:33:00,
2013-03-21 16:53:00,76.0,-99.9,-100.00,WNW,295,15.0,18.0,-999,-99.99,,,-99.99,,2013-03-21 23:53:00,
2013-03-21 17:03:00,76.0,-99.9,-100.00,WNW,295,15.0,18.0,-999,-99.99,,,-99.99,,2013-03-22 00:03:00,
2013-03-21 17:30:00,75.0,-99.9,-100.00,WSW,251,2.0,14.0,-999,-99.99,,,-99.99,,2013-03-22 00:30:00,
2013-03-21 18:22:00,75.0,-99.9,-100.00,WSW,251,2.0,14.0,-999,-99.99,,,-99.99,,2013-03-22 01:22:00,
2013-03-21 19:10:00,67.0,-99.9,-100.00,West,266,7.0,11.0,-999,-99.99,,,-99.99,,2013-03-22 02:10:00,
2013-03-21 19:32:00,69.0,-99.9,-100.00,West,278,6.0,11.0,-999,-99.99,,,-99.99,,2013-03-22 02:32:00,
2013-03-21 19:43:00,69.0,-99.9,-100.00,West,278,6.0,11.0,-999,-99.99,,,-99.99,,2013-03-22 02:43:00,
2013-03-21 19:53:00,67.0,-99.9,-100.00,West,266,7.0,11.0,-999,-99.99,,,-99.99,,2013-03-22 02:53:00,
2013-03-21 20:02:00,67.0,-99.9,-100.00,West,266,7.0,11.0,-999,-99.99,,,-99.99,,2013-03-22 03:02:00,
2013-03-21 21:04:00,63.0,-99.9,-100.00,WNW,297,8.0,9.0,-999,-99.99,,,-99.99,,2013-03-22 04:04:00,
2013-03-21 21:13:00,63.0,-99.9,-100.00,WNW,297,8.0,9.0,-999,-99.99,,,-99.99,,2013-03-22 04:13:00,
2013-03-21 21:23:00,63.0,-99.9,-100.00,WNW,291,9.0,12.0,-999,-99.99,,,-99.99,,2013-03-22 04:23:00,
2013-03-21 21:32:00,62.0,-99.9,-100.00,WNW,294,10.0,11.0,-999,-99.99,,,-99.99,,2013-03-22 04:32:00,
2013-03-21 21:43:00,62.0,-99.9,-100.00,WNW,294,10.0,11.0,-999,-99.99,,,-99.99,,2013-03-22 04:43:00,
2013-03-21 21:53:00,62.0,-99.9,-100.00,WNW,294,10.0,11.0,-999,-99.99,,,-99.99,,2013-03-22 04:53:00,